Hlavní strana
METAR-TAF:

METAR-TAF

Letiště :

Tromsø, Norsko

zeměpisná šířka: 69-41N, zeměpisná délka: 018-55E, výška: 1 m

Aktuální stav počasí

Zpráva byla vytvořena před 35 minutami, v 09:20 UTC
Východoseverovýchodní vítr 5 kt
Teplota -5°C
Vlhkost vzduchu 86%
Tlak 1012 hPa
Viditelnost 10 km a více
Skoro jasno ve výšce 800 ft
Polojasno ve výšce 4300 ft
slabé sněhové přeháňky

METAR: ENTC 040920Z 07005KT 9999 -SHSN FEW008 SCT043 M05/M07 Q1012 TEMPO 0800 SHSN VV009 RMK WIND 2600FT 35030KT

Čas: 10:55 (09:55 UTC)

Předpověď počasí

Předpověď platná od 04 v 06 UTC do 05 v 06 UTC
vítr z různých směrů 5 kt
Viditelnost 10 km a více
Skoro jasno ve výšce 1500 ft, Cumulonimbus.
Oblačno až skoro zataženo ve výšce 3000 ft
Dočasný
od 04 v 06 UTC do 05 v 06 UTC
Severní vítr 12 kt
Viditelnost: 0800 m
ve výšce 600 ft
sněhové přeháňky

TAF: ENTC 0406/0506 VRB05KT 9999 FEW015CB BKN030 TEMPO 0406/0506 01012KT 0800 SHSN VV006

Stav a předpovědi počasí z více než 4 000 letišť (zprávy METAR a TAF).

Červené a žluté tečky na mapě představují dostupné meteorologické stanice.

Když kurzor umístíte na tečku, zobrazí se název stanice.

Pak kliknutím zobrazíte stav a předpověď počasí.

Chcete-li změnit mapu, kliknutím na zelené tlačítko se znaménkem +mapu přiblížíte, kliknutím na zelené tlačítko se znaménkem – mapu oddálíte a kliknutím na zelené šipky přejdete na sousední mapy.


METAR-TAF: